Time;durP1;ratioP1;P1;durP2;ratioP2;P2;SDS_P1;SDS_P2;PMS_P1;PMS_P2;Temp;Humidity;BMP_temperature;BMP_pressure;BME280_temperature;BME280_humidity;BME280_pressure;Samples;Min_cycle;Max_cycle;Signal;HPM_P1;HPM_P2
2023/06/07 00:00:44;;;;;;;0.50;0.50;;;;;;;;;;5038222;28;20186;-81
2023/06/07 00:03:11;;;;;;;0.40;0.40;;;;;;;;;;5037885;28;20219;-81
2023/06/07 00:05:38;;;;;;;0.40;0.40;;;;;;;;;;5020334;28;20176;-80
2023/06/07 00:08:05;;;;;;;0.50;0.50;;;;;;;;;;5038386;28;20190;-80
2023/06/07 00:10:33;;;;;;;0.30;0.30;;;;;;;;;;5039305;28;20681;-80
2023/06/07 00:12:59;;;;;;;0.57;0.57;;;;;;;;;;5035666;28;20180;-81
2023/06/07 00:15:25;;;;;;;0.40;0.40;;;;;;;;;;5035708;28;20272;-79
2023/06/07 00:17:52;;;;;;;0.40;0.40;;;;;;;;;;5052275;28;20176;-80
2023/06/07 00:20:18;;;;;;;0.40;0.40;;;;;;;;;;5056780;28;20224;-80
2023/06/07 00:22:47;;;;;;;0.43;0.43;;;;;;;;;;5056577;28;20199;-81
2023/06/07 00:25:13;;;;;;;0.37;0.37;;;;;;;;;;5054508;28;20168;-81
2023/06/07 00:27:39;;;;;;;0.50;0.50;;;;;;;;;;5051638;28;20200;-82
2023/06/07 00:30:06;;;;;;;0.53;0.53;;;;;;;;;;5039059;28;20179;-81
2023/06/07 00:32:32;;;;;;;0.43;0.43;;;;;;;;;;5037879;28;20290;-81
2023/06/07 00:34:58;;;;;;;0.50;0.50;;;;;;;;;;5036748;28;20203;-80
2023/06/07 00:37:24;;;;;;;0.40;0.40;;;;;;;;;;5036429;28;20199;-81
2023/06/07 00:39:50;;;;;;;0.40;0.40;;;;;;;;;;5036346;28;20186;-81
2023/06/07 00:42:16;;;;;;;0.40;0.40;;;;;;;;;;5036377;28;20314;-80
2023/06/07 00:44:42;;;;;;;0.40;0.40;;;;;;;;;;5036003;28;20539;-81
2023/06/07 00:47:08;;;;;;;0.60;0.60;;;;;;;;;;5035639;28;20200;-80
2023/06/07 00:49:34;;;;;;;0.40;0.40;;;;;;;;;;5036571;28;20622;-80
2023/06/07 00:52:00;;;;;;;0.40;0.40;;;;;;;;;;5036091;28;20236;-80
2023/06/07 00:54:27;;;;;;;0.40;0.40;;;;;;;;;;5035886;28;20613;-81
2023/06/07 00:56:54;;;;;;;0.60;0.60;;;;;;;;;;5034552;28;20257;-79
2023/06/07 00:59:21;;;;;;;0.40;0.40;;;;;;;;;;5034686;28;20180;-80
2023/06/07 01:01:55;;;;;;;0.50;0.50;;;;;;;;;;5034631;28;20542;-82
2023/06/07 01:04:21;;;;;;;0.40;0.40;;;;;;;;;;5034437;28;20223;-79
2023/06/07 01:06:48;;;;;;;0.60;0.60;;;;;;;;;;5034219;28;20200;-81
2023/06/07 01:09:14;;;;;;;0.40;0.40;;;;;;;;;;5034805;28;20206;-81
2023/06/07 01:11:45;;;;;;;0.50;0.50;;;;;;;;;;5033986;28;20672;-80
2023/06/07 01:14:12;;;;;;;0.40;0.40;;;;;;;;;;5033705;28;20255;-80
2023/06/07 01:16:39;;;;;;;0.40;0.40;;;;;;;;;;5037182;28;20208;-80
2023/06/07 01:19:06;;;;;;;0.40;0.40;;;;;;;;;;5038335;28;20241;-78
2023/06/07 01:21:33;;;;;;;0.40;0.40;;;;;;;;;;5037931;28;20180;-80
2023/06/07 01:23:59;;;;;;;0.40;0.40;;;;;;;;;;5037898;28;20643;-80
2023/06/07 01:26:27;;;;;;;0.37;0.37;;;;;;;;;;5037866;28;20198;-80
2023/06/07 01:28:54;;;;;;;0.50;0.50;;;;;;;;;;5037269;28;20246;-80
2023/06/07 01:31:21;;;;;;;0.47;0.47;;;;;;;;;;5037696;28;20226;-80
2023/06/07 01:33:47;;;;;;;0.40;0.40;;;;;;;;;;5037747;28;20198;-80
2023/06/07 01:36:14;;;;;;;0.50;0.50;;;;;;;;;;5037493;28;20195;-80
2023/06/07 01:38:41;;;;;;;0.40;0.40;;;;;;;;;;5038370;28;20546;-81
2023/06/07 01:41:08;;;;;;;0.57;0.57;;;;;;;;;;5037755;28;20179;-80
2023/06/07 01:43:34;;;;;;;0.50;0.50;;;;;;;;;;5037855;28;20211;-79
2023/06/07 01:46:00;;;;;;;0.50;0.50;;;;;;;;;;5037211;28;20219;-81
2023/06/07 01:48:26;;;;;;;0.50;0.50;;;;;;;;;;5037841;28;20179;-79
2023/06/07 01:50:52;;;;;;;0.40;0.40;;;;;;;;;;5037654;28;20251;-80
2023/06/07 01:53:18;;;;;;;0.57;0.57;;;;;;;;;;5038004;28;20182;-79
2023/06/07 01:55:44;;;;;;;0.60;0.60;;;;;;;;;;5037614;28;20609;-80
2023/06/07 01:58:16;;;;;;;0.60;0.60;;;;;;;;;;5037235;28;20535;-81
2023/06/07 02:00:53;;;;;;;0.57;0.57;;;;;;;;;;5038175;28;20184;-81
2023/06/07 02:03:22;;;;;;;0.70;0.70;;;;;;;;;;5038012;28;20233;-81
2023/06/07 02:05:49;;;;;;;0.50;0.50;;;;;;;;;;5037338;28;20183;-81
2023/06/07 02:08:29;;;;;;;0.60;0.60;;;;;;;;;;5037024;28;20187;-81
2023/06/07 02:10:55;;;;;;;0.60;0.60;;;;;;;;;;5037633;28;20620;-80
2023/06/07 02:13:22;;;;;;;0.50;0.50;;;;;;;;;;5038091;28;20203;-80
2023/06/07 02:15:48;;;;;;;0.60;0.60;;;;;;;;;;5037400;28;20183;-81
2023/06/07 02:18:18;;;;;;;0.57;0.57;;;;;;;;;;5038000;28;20499;-81
2023/06/07 02:20:44;;;;;;;0.60;0.60;;;;;;;;;;5038798;28;20661;-81
2023/06/07 02:23:10;;;;;;;0.50;0.50;;;;;;;;;;5038105;28;20208;-80
2023/06/07 02:25:36;;;;;;;0.40;0.40;;;;;;;;;;5038845;28;20195;-81
2023/06/07 02:28:02;;;;;;;0.50;0.50;;;;;;;;;;5043646;28;20179;-79
2023/06/07 02:30:28;;;;;;;0.60;0.60;;;;;;;;;;5043652;28;20634;-80
2023/06/07 02:32:55;;;;;;;0.60;0.60;;;;;;;;;;5039538;28;20180;-80
2023/06/07 02:35:22;;;;;;;0.40;0.40;;;;;;;;;;5036627;28;20171;-81
2023/06/07 02:37:49;;;;;;;0.57;0.57;;;;;;;;;;5036575;28;20694;-79
2023/06/07 02:40:15;;;;;;;0.50;0.50;;;;;;;;;;5036371;28;20263;-82
2023/06/07 02:42:48;;;;;;;0.60;0.60;;;;;;;;;;5036643;28;20565;-81
2023/06/07 02:45:14;;;;;;;0.50;0.50;;;;;;;;;;5036340;28;20180;-81
2023/06/07 02:47:41;;;;;;;0.50;0.50;;;;;;;;;;5036491;28;20670;-80
2023/06/07 02:50:07;;;;;;;0.50;0.50;;;;;;;;;;5036242;28;20180;-81
2023/06/07 02:52:33;;;;;;;0.40;0.40;;;;;;;;;;5036200;28;20245;-80
2023/06/07 02:55:00;;;;;;;0.60;0.60;;;;;;;;;;5036437;28;20190;-80
2023/06/07 02:57:26;;;;;;;0.50;0.50;;;;;;;;;;5035757;28;20667;-80
2023/06/07 02:59:56;;;;;;;0.70;0.70;;;;;;;;;;5036454;28;20183;-80
2023/06/07 03:02:22;;;;;;;0.70;0.70;;;;;;;;;;5035954;28;20212;-79
2023/06/07 03:04:48;;;;;;;0.57;0.57;;;;;;;;;;5036054;28;20172;-81
2023/06/07 03:07:14;;;;;;;0.50;0.50;;;;;;;;;;5035078;28;20220;-81
2023/06/07 03:09:40;;;;;;;0.70;0.70;;;;;;;;;;5036145;28;20207;-81
2023/06/07 03:12:06;;;;;;;0.57;0.57;;;;;;;;;;5036058;28;20651;-80
2023/06/07 03:14:33;;;;;;;0.60;0.60;;;;;;;;;;5035466;28;20188;-82
2023/06/07 03:16:59;;;;;;;0.60;0.60;;;;;;;;;;5035320;28;20218;-79
2023/06/07 03:19:24;;;;;;;0.53;0.53;;;;;;;;;;5035607;28;20593;-81
2023/06/07 03:21:52;;;;;;;0.57;0.57;;;;;;;;;;5035502;28;20203;-80
2023/06/07 03:24:18;;;;;;;0.60;0.60;;;;;;;;;;5035652;28;20255;-80
2023/06/07 03:26:44;;;;;;;0.60;0.60;;;;;;;;;;5035586;28;20200;-80
2023/06/07 03:29:10;;;;;;;0.50;0.50;;;;;;;;;;5036608;28;20176;-80
2023/06/07 03:31:37;;;;;;;0.60;0.60;;;;;;;;;;5036131;28;20176;-80
2023/06/07 03:34:03;;;;;;;0.50;0.50;;;;;;;;;;5036567;28;20629;-81
2023/06/07 03:36:29;;;;;;;0.50;0.50;;;;;;;;;;5035572;28;20207;-81
2023/06/07 03:38:59;;;;;;;0.60;0.60;;;;;;;;;;5035741;28;20226;-80
2023/06/07 03:41:27;;;;;;;0.60;0.60;;;;;;;;;;5036017;28;20238;-81
2023/06/07 03:43:53;;;;;;;0.60;0.60;;;;;;;;;;5035908;28;20589;-80
2023/06/07 03:46:19;;;;;;;0.50;0.50;;;;;;;;;;5035569;28;20226;-81
2023/06/07 03:48:45;;;;;;;0.60;0.60;;;;;;;;;;5036280;28;20190;-81
2023/06/07 03:51:11;;;;;;;0.60;0.60;;;;;;;;;;5050475;28;20175;-80
2023/06/07 03:53:38;;;;;;;0.50;0.50;;;;;;;;;;5055500;28;20194;-82
2023/06/07 03:56:05;;;;;;;0.50;0.50;;;;;;;;;;5054408;28;20203;-78
2023/06/07 03:58:31;;;;;;;0.70;0.70;;;;;;;;;;5054018;28;20176;-81
2023/06/07 04:00:57;;;;;;;0.67;0.67;;;;;;;;;;5050982;28;20180;-82
2023/06/07 04:03:27;;;;;;;0.60;0.60;;;;;;;;;;5037711;28;20250;-81
2023/06/07 04:05:57;;;;;;;0.60;0.60;;;;;;;;;;5036702;28;20172;-81
2023/06/07 04:08:23;;;;;;;0.60;0.60;;;;;;;;;;5036618;28;20182;-81
2023/06/07 04:10:49;;;;;;;0.70;0.70;;;;;;;;;;5036610;28;20199;-81
2023/06/07 04:13:15;;;;;;;0.60;0.60;;;;;;;;;;5036794;28;20187;-80
2023/06/07 04:15:41;;;;;;;0.60;0.60;;;;;;;;;;5035515;28;20180;-82
2023/06/07 04:18:07;;;;;;;0.60;0.60;;;;;;;;;;5036456;28;20236;-81
2023/06/07 04:20:33;;;;;;;0.57;0.57;;;;;;;;;;5036146;28;20215;-79
2023/06/07 04:23:00;;;;;;;0.50;0.50;;;;;;;;;;5035965;28;20219;-80
2023/06/07 04:25:32;;;;;;;0.50;0.50;;;;;;;;;;5036460;28;20203;-83
2023/06/07 04:28:01;;;;;;;0.60;0.60;;;;;;;;;;5034994;28;20219;-81
2023/06/07 04:30:34;;;;;;;0.60;0.60;;;;;;;;;;5035625;28;20171;-80
2023/06/07 04:33:04;;;;;;;0.60;0.60;;;;;;;;;;5035487;28;20666;-80
2023/06/07 04:35:33;;;;;;;0.60;0.60;;;;;;;;;;5036921;28;20184;-82
2023/06/07 04:38:01;;;;;;;0.40;0.40;;;;;;;;;;5036320;28;20176;-82
2023/06/07 04:40:27;;;;;;;0.70;0.70;;;;;;;;;;5037006;28;20214;-82
2023/06/07 04:42:55;;;;;;;0.60;0.60;;;;;;;;;;5037319;28;20208;-82
2023/06/07 04:45:28;;;;;;;0.57;0.57;;;;;;;;;;5037111;28;20200;-82
2023/06/07 04:47:56;;;;;;;0.60;0.60;;;;;;;;;;5034442;28;20202;-82
2023/06/07 04:50:22;;;;;;;0.70;0.70;;;;;;;;;;5034292;28;20194;-82
2023/06/07 04:52:49;;;;;;;0.60;0.60;;;;;;;;;;5035516;28;20202;-82
2023/06/07 04:55:15;;;;;;;0.50;0.50;;;;;;;;;;5035731;28;20226;-81
2023/06/07 04:57:45;;;;;;;0.40;0.40;;;;;;;;;;5034654;28;20743;-81
2023/06/07 05:00:14;;;;;;;0.57;0.57;;;;;;;;;;5035433;28;20179;-80
2023/06/07 05:02:44;;;;;;;0.40;0.40;;;;;;;;;;5034926;28;20246;-82
2023/06/07 05:05:10;;;;;;;0.60;0.60;;;;;;;;;;5034853;28;20176;-80
2023/06/07 05:07:36;;;;;;;0.60;0.60;;;;;;;;;;5036021;28;20290;-80
2023/06/07 05:10:02;;;;;;;0.50;0.50;;;;;;;;;;5037057;28;20202;-78
2023/06/07 05:12:28;;;;;;;0.60;0.60;;;;;;;;;;5039047;28;20642;-81
2023/06/07 05:14:54;;;;;;;0.57;0.57;;;;;;;;;;5036530;28;20168;-81
2023/06/07 05:17:20;;;;;;;0.50;0.50;;;;;;;;;;5035359;28;20203;-80
2023/06/07 05:19:46;;;;;;;0.50;0.50;;;;;;;;;;5036553;28;20187;-79
2023/06/07 05:22:14;;;;;;;0.50;0.50;;;;;;;;;;5034702;28;20602;-80
2023/06/07 05:24:40;;;;;;;0.40;0.40;;;;;;;;;;5040598;28;20230;-80
2023/06/07 05:27:06;;;;;;;0.60;0.60;;;;;;;;;;5046170;28;20274;-81
2023/06/07 05:29:32;;;;;;;0.37;0.37;;;;;;;;;;5048371;28;20581;-79
2023/06/07 05:31:58;;;;;;;0.47;0.47;;;;;;;;;;5054494;28;20190;-80
2023/06/07 05:34:25;;;;;;;0.40;0.40;;;;;;;;;;5053057;28;20244;-79
2023/06/07 05:36:51;;;;;;;0.40;0.40;;;;;;;;;;5046027;28;20186;-80
2023/06/07 05:39:17;;;;;;;0.50;0.50;;;;;;;;;;5044644;28;20275;-81
2023/06/07 05:41:43;;;;;;;0.53;0.53;;;;;;;;;;5044170;28;20303;-81
2023/06/07 05:44:09;;;;;;;0.60;0.60;;;;;;;;;;5052843;28;20182;-82
2023/06/07 05:46:35;;;;;;;0.50;0.50;;;;;;;;;;5047349;28;20192;-85
2023/06/07 05:49:01;;;;;;;0.50;0.50;;;;;;;;;;5050271;28;20202;-84
2023/06/07 05:51:27;;;;;;;0.60;0.60;;;;;;;;;;5047321;28;20172;-84
2023/06/07 05:53:53;;;;;;;0.40;0.40;;;;;;;;;;5035716;28;20187;-87
2023/06/07 05:56:21;;;;;;;0.60;0.60;;;;;;;;;;5043301;28;20398;-84
2023/06/07 05:58:53;;;;;;;0.40;0.40;;;;;;;;;;5043216;28;20175;-85
2023/06/07 06:01:19;;;;;;;0.50;0.50;;;;;;;;;;5035695;28;20172;-85
2023/06/07 06:03:45;;;;;;;0.40;0.40;;;;;;;;;;5044958;28;20211;-81
2023/06/07 06:06:12;;;;;;;0.40;0.40;;;;;;;;;;5048873;28;20199;-84
2023/06/07 06:08:39;;;;;;;0.40;0.40;;;;;;;;;;5042807;28;20205;-85
2023/06/07 06:11:06;;;;;;;0.30;0.30;;;;;;;;;;5043725;28;20188;-82
2023/06/07 06:13:32;;;;;;;0.40;0.40;;;;;;;;;;5043907;28;20176;-82
2023/06/07 06:15:58;;;;;;;0.60;0.60;;;;;;;;;;5044074;28;20191;-81
2023/06/07 06:18:24;;;;;;;0.43;0.43;;;;;;;;;;5050567;28;20750;-80
2023/06/07 06:20:50;;;;;;;0.50;0.50;;;;;;;;;;5048777;28;20703;-79
2023/06/07 06:23:16;;;;;;;0.40;0.40;;;;;;;;;;5039579;28;20200;-83
2023/06/07 06:25:43;;;;;;;0.40;0.40;;;;;;;;;;5037700;28;20180;-81
2023/06/07 06:28:09;;;;;;;0.40;0.40;;;;;;;;;;5038586;28;20184;-80
2023/06/07 06:30:35;;;;;;;0.30;0.30;;;;;;;;;;5038204;28;20176;-81
2023/06/07 06:33:02;;;;;;;0.40;0.40;;;;;;;;;;5038193;28;20226;-81
2023/06/07 06:35:28;;;;;;;0.40;0.40;;;;;;;;;;5038804;28;20176;-81
2023/06/07 06:37:54;;;;;;;0.40;0.40;;;;;;;;;;5038915;28;20207;-81
2023/06/07 06:40:20;;;;;;;0.50;0.50;;;;;;;;;;5040029;28;20168;-79
2023/06/07 06:42:46;;;;;;;0.40;0.40;;;;;;;;;;5041568;28;20207;-78
2023/06/07 06:45:12;;;;;;;0.40;0.40;;;;;;;;;;5046110;28;20550;-80
2023/06/07 06:47:41;;;;;;;0.40;0.40;;;;;;;;;;5046784;28;20214;-79
2023/06/07 06:50:11;;;;;;;0.30;0.30;;;;;;;;;;5047551;28;20188;-81
2023/06/07 06:52:41;;;;;;;0.40;0.40;;;;;;;;;;5042128;28;20167;-81
2023/06/07 06:55:07;;;;;;;0.40;0.40;;;;;;;;;;5037495;28;20187;-82
2023/06/07 06:57:33;;;;;;;0.40;0.40;;;;;;;;;;5037211;28;20196;-81
2023/06/07 07:00:00;;;;;;;0.40;0.40;;;;;;;;;;5037231;28;20180;-80
2023/06/07 07:02:26;;;;;;;0.40;0.40;;;;;;;;;;5036304;28;20517;-82
2023/06/07 07:04:53;;;;;;;0.30;0.30;;;;;;;;;;5035254;28;20648;-82
2023/06/07 07:07:19;;;;;;;0.40;0.40;;;;;;;;;;5043200;28;20301;-82
2023/06/07 07:09:45;;;;;;;0.40;0.40;;;;;;;;;;5055805;28;20254;-85
2023/06/07 07:12:11;;;;;;;0.40;0.40;;;;;;;;;;5055533;28;20202;-82
2023/06/07 07:14:37;;;;;;;0.30;0.30;;;;;;;;;;5055344;28;20373;-79
2023/06/07 07:17:03;;;;;;;0.60;0.60;;;;;;;;;;5054632;28;20191;-81
2023/06/07 07:19:29;;;;;;;0.40;0.40;;;;;;;;;;5055408;28;20171;-79
2023/06/07 07:21:55;;;;;;;0.30;0.30;;;;;;;;;;5048295;28;20659;-79
2023/06/07 07:24:21;;;;;;;0.30;0.30;;;;;;;;;;5035083;28;20183;-80
2023/06/07 07:26:48;;;;;;;0.30;0.30;;;;;;;;;;5035089;28;20264;-81
2023/06/07 07:29:14;;;;;;;0.30;0.30;;;;;;;;;;5045345;28;20669;-81
2023/06/07 07:31:40;;;;;;;0.40;0.40;;;;;;;;;;5049296;28;20210;-82
2023/06/07 07:34:06;;;;;;;0.30;0.30;;;;;;;;;;5054778;28;20236;-81
2023/06/07 07:36:35;;;;;;;0.40;0.40;;;;;;;;;;5040133;28;20203;-79
2023/06/07 07:39:07;;;;;;;0.30;0.30;;;;;;;;;;5054423;28;20795;-81
2023/06/07 07:41:33;;;;;;;0.30;0.30;;;;;;;;;;5053701;28;20682;-81
2023/06/07 07:43:59;;;;;;;0.30;0.30;;;;;;;;;;5054056;28;20187;-80
2023/06/07 07:46:25;;;;;;;0.30;0.30;;;;;;;;;;5053819;28;20206;-80
2023/06/07 07:48:51;;;;;;;0.20;0.20;;;;;;;;;;5051999;28;20171;-80
2023/06/07 07:51:17;;;;;;;0.30;0.30;;;;;;;;;;5045333;28;20198;-81
2023/06/07 07:53:43;;;;;;;0.30;0.30;;;;;;;;;;5053553;28;20179;-80
2023/06/07 07:56:10;;;;;;;0.30;0.30;;;;;;;;;;5053565;28;20195;-81
2023/06/07 07:58:36;;;;;;;0.30;0.30;;;;;;;;;;5054343;28;20695;-81
2023/06/07 08:01:02;;;;;;;0.20;0.20;;;;;;;;;;5051474;28;20176;-84
2023/06/07 08:03:29;;;;;;;0.30;0.30;;;;;;;;;;5035559;28;20607;-85
2023/06/07 08:05:55;;;;;;;0.30;0.30;;;;;;;;;;5038295;28;20326;-82
2023/06/07 08:08:21;;;;;;;0.33;0.33;;;;;;;;;;5049962;28;20184;-83
2023/06/07 08:10:48;;;;;;;0.30;0.30;;;;;;;;;;5044705;28;20190;-83
2023/06/07 08:13:14;;;;;;;0.20;0.20;;;;;;;;;;5055131;28;20175;-84
2023/06/07 08:15:41;;;;;;;0.30;0.30;;;;;;;;;;5052275;28;20175;-82
2023/06/07 08:18:07;;;;;;;0.37;0.37;;;;;;;;;;5055911;28;20175;-84
2023/06/07 08:20:33;;;;;;;0.40;0.40;;;;;;;;;;5055213;28;20175;-85
2023/06/07 08:22:59;;;;;;;0.30;0.30;;;;;;;;;;5054435;28;20238;-82
2023/06/07 08:25:25;;;;;;;0.40;0.40;;;;;;;;;;5054429;28;20634;-84
2023/06/07 08:27:51;;;;;;;0.40;0.40;;;;;;;;;;5053891;28;20218;-82
2023/06/07 08:30:17;;;;;;;0.30;0.30;;;;;;;;;;5054762;28;20305;-84
2023/06/07 08:32:45;;;;;;;0.40;0.40;;;;;;;;;;5055470;28;20178;-82
2023/06/07 08:35:12;;;;;;;0.20;0.20;;;;;;;;;;5054182;28;20519;-84
2023/06/07 08:37:38;;;;;;;0.40;0.40;;;;;;;;;;5052896;28;20685;-82
2023/06/07 08:40:08;;;;;;;0.47;0.47;;;;;;;;;;5054310;28;20175;-83
2023/06/07 08:42:35;;;;;;;0.30;0.30;;;;;;;;;;5053419;28;20211;-82
2023/06/07 08:45:01;;;;;;;0.40;0.40;;;;;;;;;;5054495;28;20175;-83
2023/06/07 08:47:28;;;;;;;0.30;0.30;;;;;;;;;;5053934;28;20203;-83
2023/06/07 08:49:57;;;;;;;0.20;0.20;;;;;;;;;;5054103;28;20262;-81
2023/06/07 08:52:24;;;;;;;0.30;0.30;;;;;;;;;;5053214;28;20210;-83
2023/06/07 08:54:52;;;;;;;0.30;0.30;;;;;;;;;;5053027;28;20229;-83
2023/06/07 08:57:19;;;;;;;0.30;0.30;;;;;;;;;;5047174;28;20756;-81
2023/06/07 08:59:46;;;;;;;0.30;0.30;;;;;;;;;;5032654;28;20183;-83
2023/06/07 09:02:15;;;;;;;0.23;0.23;;;;;;;;;;5047479;28;20214;-81
2023/06/07 09:04:41;;;;;;;0.23;0.23;;;;;;;;;;5052551;28;20492;-81
2023/06/07 09:07:08;;;;;;;0.30;0.30;;;;;;;;;;5050068;28;20204;-82
2023/06/07 09:09:35;;;;;;;0.30;0.30;;;;;;;;;;5038113;28;20182;-82
2023/06/07 09:12:01;;;;;;;0.50;0.50;;;;;;;;;;5032020;28;20183;-83
2023/06/07 09:14:28;;;;;;;0.40;0.40;;;;;;;;;;5032942;28;20184;-83
2023/06/07 09:17:00;;;;;;;0.30;0.30;;;;;;;;;;5034819;28;20203;-82
2023/06/07 09:19:33;;;;;;;0.30;0.30;;;;;;;;;;5051848;28;20175;-83
2023/06/07 09:21:59;;;;;;;0.30;0.30;;;;;;;;;;5044374;28;20218;-82
2023/06/07 09:24:29;;;;;;;0.37;0.37;;;;;;;;;;5046186;28;20318;-81
2023/06/07 09:26:55;;;;;;;0.30;0.30;;;;;;;;;;5044918;28;20808;-82
2023/06/07 09:29:22;;;;;;;0.30;0.30;;;;;;;;;;5047190;28;20175;-81
2023/06/07 09:31:48;;;;;;;0.40;0.40;;;;;;;;;;5029459;28;20745;-81
2023/06/07 09:34:24;;;;;;;0.40;0.40;;;;;;;;;;5051198;28;20598;-82
2023/06/07 09:36:51;;;;;;;0.60;0.60;;;;;;;;;;5035778;28;20241;-83
2023/06/07 09:39:32;;;;;;;0.40;0.40;;;;;;;;;;5042012;28;20174;-81
2023/06/07 09:41:58;;;;;;;0.40;0.40;;;;;;;;;;5038800;28;20202;-82
2023/06/07 09:44:25;;;;;;;0.50;0.50;;;;;;;;;;5057283;28;20175;-84
2023/06/07 09:46:51;;;;;;;0.50;0.50;;;;;;;;;;5056219;28;20203;-84
2023/06/07 09:49:27;;;;;;;0.50;0.50;;;;;;;;;;5057849;28;20204;-84
2023/06/07 09:51:53;;;;;;;0.30;0.30;;;;;;;;;;5051287;28;20659;-82
2023/06/07 09:54:34;;;;;;;0.40;0.40;;;;;;;;;;5037111;28;20184;-82
2023/06/07 09:57:00;;;;;;;0.40;0.40;;;;;;;;;;5037208;28;20214;-83
2023/06/07 09:59:26;;;;;;;0.30;0.30;;;;;;;;;;5036859;28;20179;-82
2023/06/07 10:01:52;;;;;;;0.40;0.40;;;;;;;;;;5039544;28;20194;-83
2023/06/07 10:04:18;;;;;;;0.40;0.40;;;;;;;;;;5050889;28;20171;-83
2023/06/07 10:06:47;;;;;;;0.40;0.40;;;;;;;;;;5038637;28;20199;-83
2023/06/07 10:09:15;;;;;;;0.43;0.43;;;;;;;;;;5036152;28;20183;-82
2023/06/07 10:11:44;;;;;;;0.33;0.33;;;;;;;;;;5036363;28;20196;-81
2023/06/07 10:14:11;;;;;;;0.30;0.30;;;;;;;;;;5036228;28;20176;-82
2023/06/07 10:16:37;;;;;;;0.30;0.30;;;;;;;;;;5044159;28;20252;-82
2023/06/07 10:19:21;;;;;;;0.50;0.50;;;;;;;;;;5064376;28;20179;-80
2023/06/07 10:21:48;;;;;;;0.40;0.40;;;;;;;;;;5073854;28;20178;-80
2023/06/07 10:24:17;;;;;;;0.40;0.40;;;;;;;;;;5074482;28;20232;-81
2023/06/07 10:26:52;;;;;;;0.40;0.40;;;;;;;;;;5073189;28;20220;-81
2023/06/07 10:29:24;;;;;;;0.30;0.30;;;;;;;;;;5069174;28;20187;-83
2023/06/07 10:31:57;;;;;;;0.40;0.40;;;;;;;;;;5048485;28;20176;-83
2023/06/07 10:34:24;;;;;;;0.40;0.40;;;;;;;;;;5020273;28;20180;-83
2023/06/07 10:36:50;;;;;;;0.40;0.40;;;;;;;;;;5037298;28;20238;-84
2023/06/07 10:39:16;;;;;;;0.30;0.30;;;;;;;;;;5036754;28;20183;-83
2023/06/07 10:41:42;;;;;;;0.40;0.40;;;;;;;;;;5036771;28;20183;-82
2023/06/07 10:44:08;;;;;;;0.20;0.20;;;;;;;;;;5036811;28;20573;-83
2023/06/07 10:46:34;;;;;;;0.40;0.40;;;;;;;;;;5035763;28;20203;-81
2023/06/07 10:49:00;;;;;;;0.30;0.30;;;;;;;;;;5036463;28;20278;-81
2023/06/07 10:51:43;;;;;;;0.37;0.37;;;;;;;;;;5038273;28;20210;-83
2023/06/07 10:54:09;;;;;;;0.37;0.37;;;;;;;;;;5042821;28;20336;-84
2023/06/07 10:56:36;;;;;;;0.30;0.30;;;;;;;;;;5055877;28;20210;-82
2023/06/07 10:59:14;;;;;;;0.30;0.30;;;;;;;;;;5057259;28;20183;-82
2023/06/07 11:01:41;;;;;;;0.40;0.40;;;;;;;;;;5045274;28;20210;-82
2023/06/07 11:04:07;;;;;;;0.30;0.30;;;;;;;;;;5038368;28;20190;-82
2023/06/07 11:06:33;;;;;;;0.30;0.30;;;;;;;;;;5038885;28;20214;-82
2023/06/07 11:09:33;;;;;;;0.60;0.60;;;;;;;;;;5039288;28;20180;-82
2023/06/07 11:11:59;;;;;;;0.40;0.40;;;;;;;;;;5005400;28;20203;-83
2023/06/07 11:14:26;;;;;;;0.40;0.40;;;;;;;;;;5037584;28;20199;-84
2023/06/07 11:16:52;;;;;;;0.60;0.60;;;;;;;;;;5042603;28;20199;-85
2023/06/07 11:19:18;;;;;;;0.40;0.40;;;;;;;;;;5048666;28;20233;-84
2023/06/07 11:22:06;;;;;;;0.50;0.50;;;;;;;;;;5049977;28;20180;-82
2023/06/07 11:24:33;;;;;;;0.60;0.60;;;;;;;;;;5038781;28;20192;-83
2023/06/07 11:26:59;;;;;;;0.40;0.40;;;;;;;;;;5035302;28;20290;-83
2023/06/07 11:29:25;;;;;;;0.50;0.50;;;;;;;;;;5035642;28;20258;-81
2023/06/07 11:31:58;;;;;;;0.40;0.40;;;;;;;;;;5037822;28;20172;-82
2023/06/07 11:34:29;;;;;;;0.40;0.40;;;;;;;;;;5042169;28;20172;-85
2023/06/07 11:37:08;;;;;;;0.40;0.40;;;;;;;;;;5039608;28;20204;-82
2023/06/07 11:39:34;;;;;;;0.50;0.50;;;;;;;;;;5035922;28;20191;-81
2023/06/07 11:42:01;;;;;;;0.50;0.50;;;;;;;;;;5035717;28;20223;-83
2023/06/07 11:44:27;;;;;;;0.50;0.50;;;;;;;;;;5049336;28;20179;-81
2023/06/07 11:46:52;;;;;;;0.40;0.40;;;;;;;;;;5054014;28;20341;-83
2023/06/07 11:49:18;;;;;;;0.43;0.43;;;;;;;;;;5054955;28;20175;-82
2023/06/07 11:51:51;;;;;;;0.60;0.60;;;;;;;;;;5056212;28;20550;-82
2023/06/07 11:54:16;;;;;;;0.50;0.50;;;;;;;;;;5054600;28;20171;-81
2023/06/07 11:56:43;;;;;;;0.43;0.43;;;;;;;;;;5053264;28;20294;-82
2023/06/07 11:59:10;;;;;;;0.43;0.43;;;;;;;;;;5053955;28;20235;-81
2023/06/07 12:01:42;;;;;;;0.40;0.40;;;;;;;;;;5054092;28;20202;-81
2023/06/07 12:04:09;;;;;;;0.50;0.50;;;;;;;;;;5035461;28;20195;-81
2023/06/07 12:06:35;;;;;;;0.40;0.40;;;;;;;;;;5018542;28;20286;-80
2023/06/07 12:09:01;;;;;;;0.53;0.53;;;;;;;;;;5044931;28;20221;-80
2023/06/07 12:11:27;;;;;;;0.50;0.50;;;;;;;;;;5052587;28;20236;-81
2023/06/07 12:13:54;;;;;;;0.60;0.60;;;;;;;;;;5034846;28;20179;-81
2023/06/07 12:16:23;;;;;;;0.57;0.57;;;;;;;;;;5052346;28;20199;-80
2023/06/07 12:18:49;;;;;;;0.60;0.60;;;;;;;;;;5052897;28;20559;-83
2023/06/07 12:21:16;;;;;;;0.50;0.50;;;;;;;;;;5053150;28;20175;-81
2023/06/07 12:23:50;;;;;;;0.40;0.40;;;;;;;;;;5052726;28;20527;-81
2023/06/07 12:26:17;;;;;;;0.60;0.60;;;;;;;;;;5053070;28;20207;-81
2023/06/07 12:28:44;;;;;;;0.40;0.40;;;;;;;;;;5053679;28;20183;-82
2023/06/07 12:31:17;;;;;;;0.50;0.50;;;;;;;;;;5054061;28;20191;-79
2023/06/07 12:33:59;;;;;;;0.70;0.70;;;;;;;;;;5053198;28;20190;-80
2023/06/07 12:36:34;;;;;;;0.40;0.40;;;;;;;;;;5053224;28;20218;-80
2023/06/07 12:39:04;;;;;;;0.50;0.50;;;;;;;;;;5053171;28;20248;-81
2023/06/07 12:41:32;;;;;;;0.67;0.67;;;;;;;;;;5053823;28;20179;-81
2023/06/07 12:43:58;;;;;;;0.60;0.60;;;;;;;;;;5048615;28;20230;-79
2023/06/07 12:46:24;;;;;;;0.50;0.50;;;;;;;;;;5032879;28;20561;-82
2023/06/07 12:48:50;;;;;;;0.60;0.60;;;;;;;;;;5032807;28;20175;-81
2023/06/07 12:51:17;;;;;;;0.60;0.60;;;;;;;;;;5033430;28;20226;-81
2023/06/07 12:53:43;;;;;;;0.60;0.60;;;;;;;;;;5031911;28;20187;-81
2023/06/07 12:56:09;;;;;;;0.50;0.50;;;;;;;;;;5033787;28;20199;-78
2023/06/07 12:58:35;;;;;;;0.60;0.60;;;;;;;;;;5034473;28;20180;-81
2023/06/07 13:01:02;;;;;;;0.67;0.67;;;;;;;;;;5034400;28;20191;-79
2023/06/07 13:03:29;;;;;;;0.60;0.60;;;;;;;;;;5019480;28;20203;-83
2023/06/07 13:05:55;;;;;;;0.60;0.60;;;;;;;;;;5034562;28;20227;-81
2023/06/07 13:08:21;;;;;;;0.50;0.50;;;;;;;;;;5034221;28;20680;-80
2023/06/07 13:10:47;;;;;;;0.50;0.50;;;;;;;;;;5033549;28;20255;-83
2023/06/07 13:13:14;;;;;;;0.60;0.60;;;;;;;;;;5034855;28;20202;-82
2023/06/07 13:15:39;;;;;;;0.53;0.53;;;;;;;;;;5034452;28;20183;-87
2023/06/07 13:18:05;;;;;;;0.60;0.60;;;;;;;;;;5035036;28;20282;-82
2023/06/07 13:20:33;;;;;;;0.50;0.50;;;;;;;;;;5017867;28;20287;-83
2023/06/07 13:22:59;;;;;;;0.40;0.40;;;;;;;;;;5034753;28;20207;-84
2023/06/07 13:25:25;;;;;;;0.43;0.43;;;;;;;;;;5054144;28;20202;-82
2023/06/07 13:27:51;;;;;;;0.50;0.50;;;;;;;;;;5053567;28;20202;-81
2023/06/07 13:30:17;;;;;;;0.50;0.50;;;;;;;;;;5054294;28;20179;-84
2023/06/07 13:32:43;;;;;;;0.50;0.50;;;;;;;;;;5054608;28;20191;-80
2023/06/07 13:35:09;;;;;;;0.50;0.50;;;;;;;;;;5048752;28;20178;-82
2023/06/07 13:37:35;;;;;;;0.50;0.50;;;;;;;;;;5039923;28;20278;-80
2023/06/07 13:40:01;;;;;;;0.50;0.50;;;;;;;;;;5034290;28;20179;-81
2023/06/07 13:42:27;;;;;;;0.50;0.50;;;;;;;;;;5035293;28;20211;-84
2023/06/07 13:44:53;;;;;;;0.60;0.60;;;;;;;;;;5049707;28;20646;-83
2023/06/07 13:47:20;;;;;;;0.50;0.50;;;;;;;;;;5053819;28;20203;-79
2023/06/07 13:49:46;;;;;;;0.70;0.70;;;;;;;;;;5049189;28;20202;-80
2023/06/07 13:52:12;;;;;;;0.60;0.60;;;;;;;;;;5034899;28;20233;-82
2023/06/07 13:54:38;;;;;;;0.53;0.53;;;;;;;;;;5035977;28;20183;-80
2023/06/07 13:57:04;;;;;;;0.57;0.57;;;;;;;;;;5033162;28;20203;-81
2023/06/07 13:59:30;;;;;;;0.60;0.60;;;;;;;;;;5033704;28;20214;-82
2023/06/07 14:01:57;;;;;;;0.50;0.50;;;;;;;;;;5033237;28;20849;-80
2023/06/07 14:04:23;;;;;;;0.60;0.60;;;;;;;;;;5033243;28;20188;-80
2023/06/07 14:06:52;;;;;;;0.60;0.60;;;;;;;;;;5032531;28;20196;-82
2023/06/07 14:09:18;;;;;;;0.40;0.40;;;;;;;;;;5032351;28;20187;-79
2023/06/07 14:11:44;;;;;;;0.53;0.53;;;;;;;;;;5032628;28;20199;-80
2023/06/07 14:14:10;;;;;;;0.50;0.50;;;;;;;;;;5033358;28;20203;-79
2023/06/07 14:16:36;;;;;;;0.60;0.60;;;;;;;;;;5052017;28;20206;-79
2023/06/07 14:19:02;;;;;;;0.60;0.60;;;;;;;;;;5052337;28;20261;-81
2023/06/07 14:21:29;;;;;;;0.50;0.50;;;;;;;;;;5032454;28;20180;-82
2023/06/07 14:23:55;;;;;;;0.50;0.50;;;;;;;;;;5035831;28;20238;-80
2023/06/07 14:26:21;;;;;;;0.50;0.50;;;;;;;;;;5035616;28;20200;-83
2023/06/07 14:28:48;;;;;;;0.43;0.43;;;;;;;;;;5036239;28;20627;-84
2023/06/07 14:31:17;;;;;;;0.50;0.50;;;;;;;;;;5035961;28;20180;-79
2023/06/07 14:33:43;;;;;;;0.53;0.53;;;;;;;;;;5035765;28;20204;-80
2023/06/07 14:36:09;;;;;;;0.50;0.50;;;;;;;;;;5035293;28;20199;-81
2023/06/07 14:38:38;;;;;;;0.40;0.40;;;;;;;;;;5035747;28;20270;-79
2023/06/07 14:41:04;;;;;;;0.40;0.40;;;;;;;;;;5035944;28;20184;-82
2023/06/07 14:43:30;;;;;;;0.40;0.40;;;;;;;;;;5018680;28;20311;-83